createdAt,value
2023-03-02T00:01:57.731Z,2.01
2023-03-02T00:04:27.745Z,2.02
2023-03-02T00:06:57.975Z,2.02
2023-03-02T00:09:27.780Z,2.00
2023-03-02T00:11:57.493Z,1.97
2023-03-02T00:14:26.689Z,1.96
2023-03-02T00:16:55.476Z,1.93
2023-03-02T00:19:24.261Z,1.87
2023-03-02T00:21:53.464Z,1.83
2023-03-02T00:24:22.249Z,1.78
2023-03-02T00:26:51.040Z,1.74
2023-03-02T00:29:19.833Z,1.71
2023-03-02T00:31:48.746Z,1.70
2023-03-02T00:34:18.012Z,1.66
2023-03-02T00:36:49.728Z,1.64
2023-03-02T00:39:20.440Z,1.62
2023-03-02T00:41:49.498Z,1.60
2023-03-02T00:44:18.179Z,1.54
2023-03-02T00:46:47.136Z,1.48
2023-03-02T00:49:18.128Z,1.46
2023-03-02T00:51:49.356Z,1.45
2023-03-02T00:54:18.758Z,1.42
2023-03-02T00:56:47.546Z,1.41
2023-03-02T00:59:28.734Z,1.39
2023-03-02T01:02:04.002Z,1.36
2023-03-02T01:04:37.991Z,1.36
2023-03-02T01:07:10.888Z,1.35
2023-03-02T01:09:40.263Z,1.34
2023-03-02T01:12:11.613Z,1.35
2023-03-02T01:14:41.628Z,1.34
2023-03-02T01:17:10.620Z,1.32
2023-03-02T01:19:40.436Z,1.30
2023-03-02T01:22:09.436Z,1.30
2023-03-02T01:24:43.845Z,1.30
2023-03-02T01:27:13.150Z,1.26
2023-03-02T01:29:42.038Z,1.20
2023-03-02T01:32:11.080Z,1.20
2023-03-02T01:34:39.824Z,1.20
2023-03-02T01:37:10.146Z,1.18
2023-03-02T01:39:38.828Z,1.17
2023-03-02T01:42:07.723Z,1.20
2023-03-02T01:44:40.301Z,1.21
2023-03-02T01:47:15.435Z,1.22
2023-03-02T01:49:54.447Z,1.24
2023-03-02T01:52:24.282Z,1.25
2023-03-02T01:54:53.782Z,1.23
2023-03-02T01:57:24.313Z,1.22
2023-03-02T01:59:54.223Z,1.18
2023-03-02T02:02:23.066Z,1.10
2023-03-02T02:04:52.306Z,1.08
2023-03-02T02:07:21.544Z,1.05
2023-03-02T02:09:50.811Z,0.99
2023-03-02T02:12:21.639Z,0.92
2023-03-02T02:14:50.421Z,0.86
2023-03-02T02:17:19.928Z,0.80
2023-03-02T02:19:49.049Z,0.79
2023-03-02T02:22:22.729Z,0.83
2023-03-02T02:24:57.560Z,0.84
2023-03-02T02:27:30.146Z,0.86
2023-03-02T02:29:59.742Z,0.89
2023-03-02T02:32:30.592Z,0.92
2023-03-02T02:34:59.469Z,0.93
2023-03-02T02:37:36.579Z,0.91
2023-03-02T02:40:07.746Z,0.90
2023-03-02T02:42:38.325Z,0.90
2023-03-02T02:45:11.574Z,0.89
2023-03-02T02:47:40.407Z,0.88
2023-03-02T02:50:10.111Z,0.91
2023-03-02T02:52:41.285Z,0.91
2023-03-02T02:55:15.371Z,0.87
2023-03-02T02:57:44.468Z,0.87
2023-03-02T03:00:16.634Z,0.86
2023-03-02T03:02:48.110Z,0.85
2023-03-02T03:05:18.098Z,0.86
2023-03-02T03:07:47.309Z,0.87
2023-03-02T03:10:30.455Z,0.85
2023-03-02T03:13:00.444Z,0.84
2023-03-02T03:15:30.460Z,0.85
2023-03-02T03:17:59.547Z,0.87
2023-03-02T03:20:30.283Z,0.90
2023-03-02T03:23:01.112Z,0.92
2023-03-02T03:25:32.457Z,0.87
2023-03-02T03:28:03.906Z,0.83
2023-03-02T03:30:34.143Z,0.80
2023-03-02T03:33:04.474Z,0.78
2023-03-02T03:35:37.390Z,0.73
2023-03-02T03:38:07.276Z,0.67
2023-03-02T03:40:36.241Z,0.65
2023-03-02T03:43:07.570Z,0.62
2023-03-02T03:45:38.738Z,0.59
2023-03-02T03:48:07.842Z,0.53
2023-03-02T03:50:36.723Z,0.50
2023-03-02T03:53:05.299Z,0.47
2023-03-02T03:55:35.005Z,0.45
2023-03-02T03:58:04.306Z,0.47
2023-03-02T04:00:33.621Z,0.46
2023-03-02T04:03:05.571Z,0.49
2023-03-02T04:05:35.179Z,0.47
2023-03-02T04:08:05.291Z,0.45
2023-03-02T04:10:35.308Z,0.42
2023-03-02T04:13:04.611Z,0.39
2023-03-02T04:15:33.498Z,0.36
2023-03-02T04:18:02.381Z,0.38
2023-03-02T04:20:31.484Z,0.34
2023-03-02T04:22:59.877Z,0.25
2023-03-02T04:25:29.675Z,0.19
2023-03-02T04:28:17.877Z,0.15
2023-03-02T04:30:51.945Z,0.13
2023-03-02T04:33:21.006Z,0.11
2023-03-02T04:35:50.169Z,0.13
2023-03-02T04:38:19.631Z,0.15
2023-03-02T04:40:48.728Z,0.14
2023-03-02T04:43:17.734Z,0.12
2023-03-02T04:45:48.049Z,0.13
2023-03-02T04:48:16.837Z,0.13
2023-03-02T04:50:46.446Z,0.10
2023-03-02T04:53:15.609Z,0.05
2023-03-02T04:55:44.419Z,0.01
2023-03-02T04:58:14.928Z,0.01
2023-03-02T05:00:43.744Z,-0.03
2023-03-02T05:03:12.533Z,-0.00
2023-03-02T05:05:42.858Z,0.06
2023-03-02T05:08:11.645Z,0.05
2023-03-02T05:10:41.650Z,0.02
2023-03-02T05:13:10.353Z,0.00
2023-03-02T05:15:39.746Z,0.02
2023-03-02T05:18:09.457Z,0.08
2023-03-02T05:20:38.250Z,0.15
2023-03-02T05:23:07.154Z,0.19
2023-03-02T05:25:37.461Z,0.20
2023-03-02T05:28:07.171Z,0.23
2023-03-02T05:30:38.618Z,0.28
2023-03-02T05:33:07.013Z,0.30
2023-03-02T05:35:36.136Z,0.33
2023-03-02T05:38:05.594Z,0.33
2023-03-02T05:40:34.636Z,0.35
2023-03-02T05:43:03.535Z,0.36
2023-03-02T05:45:33.496Z,0.39
2023-03-02T05:48:03.204Z,0.44
2023-03-02T05:50:32.300Z,0.49
2023-03-02T05:53:02.829Z,0.50
2023-03-02T05:55:31.921Z,0.53
2023-03-02T05:58:00.507Z,0.58
2023-03-02T06:00:33.184Z,0.68
2023-03-02T06:03:02.710Z,0.73
2023-03-02T06:05:31.371Z,0.77
2023-03-02T06:07:59.976Z,0.85
2023-03-02T06:10:29.240Z,0.98
2023-03-02T06:12:58.044Z,1.09
2023-03-02T06:15:29.905Z,1.18
2023-03-02T06:17:58.584Z,1.23
2023-03-02T06:20:27.177Z,1.29
2023-03-02T06:22:55.980Z,1.38
2023-03-02T06:25:24.955Z,1.47
2023-03-02T06:27:54.049Z,1.52
2023-03-02T06:30:23.768Z,1.55
2023-03-02T06:32:52.674Z,1.61
2023-03-02T06:35:24.217Z,1.68
2023-03-02T06:37:53.294Z,1.76
2023-03-02T06:40:22.712Z,1.80
2023-03-02T06:42:51.597Z,1.83
2023-03-02T06:45:21.093Z,1.89
2023-03-02T06:47:50.061Z,1.96
2023-03-02T06:50:19.081Z,2.04
2023-03-02T06:52:49.092Z,2.11
2023-03-02T06:55:17.991Z,2.21
2023-03-02T06:57:47.700Z,2.28
2023-03-02T07:00:26.173Z,2.37
2023-03-02T07:02:57.032Z,2.42
2023-03-02T07:05:26.123Z,2.48
2023-03-02T07:07:55.540Z,2.56
2023-03-02T07:10:23.922Z,2.62
2023-03-02T07:12:55.544Z,2.67
2023-03-02T07:15:27.639Z,2.79
2023-03-02T07:17:56.555Z,2.92
2023-03-02T07:20:25.313Z,3.04
2023-03-02T07:22:55.539Z,3.09
2023-03-02T07:25:24.217Z,3.17
2023-03-02T07:27:57.138Z,3.29
2023-03-02T07:30:26.387Z,3.40
2023-03-02T07:32:55.296Z,3.51
2023-03-02T07:35:24.516Z,3.54
2023-03-02T07:37:52.770Z,3.58
2023-03-02T07:40:21.149Z,3.67
2023-03-02T07:42:49.321Z,3.72
2023-03-02T07:45:26.309Z,3.78
2023-03-02T07:47:54.780Z,3.81
2023-03-02T07:50:23.073Z,3.76
2023-03-02T07:52:52.052Z,3.65
2023-03-02T07:55:20.765Z,3.58
2023-03-02T07:57:49.529Z,3.63
2023-03-02T08:00:19.027Z,3.70
2023-03-02T08:02:47.968Z,3.79
2023-03-02T08:05:17.513Z,3.89
2023-03-02T08:07:47.382Z,3.96
2023-03-02T08:10:17.054Z,3.94
2023-03-02T08:12:45.687Z,3.96
2023-03-02T08:15:15.135Z,4.03
2023-03-02T08:17:44.248Z,4.05
2023-03-02T08:20:16.007Z,4.09
2023-03-02T08:22:44.779Z,4.18
2023-03-02T08:25:14.967Z,4.24
2023-03-02T08:27:46.474Z,4.26
2023-03-02T08:30:15.602Z,4.28
2023-03-02T08:32:47.906Z,4.33
2023-03-02T08:35:17.729Z,4.35
2023-03-02T08:37:46.927Z,4.38
2023-03-02T08:40:16.021Z,4.38
2023-03-02T08:42:45.339Z,4.43
2023-03-02T08:45:14.010Z,4.48
2023-03-02T08:47:43.100Z,4.54
2023-03-02T08:50:12.297Z,4.62
2023-03-02T08:52:41.086Z,4.73
2023-03-02T08:55:10.501Z,4.76
2023-03-02T08:57:41.722Z,4.68
2023-03-02T09:00:14.883Z,4.65
2023-03-02T09:02:44.226Z,4.68
2023-03-02T09:05:12.614Z,4.70
2023-03-02T09:07:41.297Z,4.73
2023-03-02T09:10:10.693Z,4.82
2023-03-02T09:12:40.923Z,4.93
2023-03-02T09:15:09.808Z,5.05
2023-03-02T09:17:41.664Z,5.27
2023-03-02T09:20:11.070Z,5.49
2023-03-02T09:22:39.963Z,5.73
2023-03-02T09:25:09.579Z,5.98
2023-03-02T09:27:39.292Z,6.21
2023-03-02T09:30:09.984Z,6.35
2023-03-02T09:32:38.896Z,6.37
2023-03-02T09:35:08.602Z,6.43
2023-03-02T09:37:39.116Z,6.75
2023-03-02T09:40:26.749Z,7.18
2023-03-02T09:43:15.214Z,7.49
2023-03-02T09:45:47.492Z,7.78
2023-03-02T09:48:23.742Z,7.97
2023-03-02T09:51:00.109Z,8.08
2023-03-02T09:53:52.651Z,8.19
2023-03-02T09:56:21.349Z,8.37
2023-03-02T09:58:56.280Z,8.81
2023-03-02T10:02:01.821Z,9.15
2023-03-02T10:04:31.739Z,9.36
2023-03-02T10:07:13.429Z,9.64
2023-03-02T10:09:41.630Z,9.95
2023-03-02T10:12:10.020Z,10.28
2023-03-02T10:14:50.138Z,10.53
2023-03-02T10:17:26.631Z,10.81
2023-03-02T10:20:00.914Z,10.86
2023-03-02T10:22:37.280Z,10.80
2023-03-02T10:25:14.979Z,10.96
2023-03-02T10:27:44.168Z,11.06
2023-03-02T10:30:33.377Z,10.92
2023-03-02T10:33:16.013Z,10.97
2023-03-02T10:35:48.848Z,11.17
2023-03-02T10:38:18.757Z,11.62
2023-03-02T10:40:53.637Z,12.08
2023-03-02T10:43:43.355Z,12.47
2023-03-02T10:46:12.770Z,12.82
2023-03-02T10:48:49.844Z,12.93
2023-03-02T10:51:34.618Z,12.80
2023-03-02T10:54:13.356Z,12.36
2023-03-02T10:56:42.519Z,12.24
2023-03-02T10:59:31.378Z,12.40
2023-03-02T11:02:04.463Z,12.48
2023-03-02T11:04:33.445Z,12.88
2023-03-02T11:07:28.988Z,13.19
2023-03-02T11:10:06.808Z,13.23
2023-03-02T11:12:36.389Z,13.19
2023-03-02T11:15:15.781Z,13.12
2023-03-02T11:17:45.115Z,13.25
2023-03-02T11:20:15.243Z,13.59
2023-03-02T11:22:44.766Z,13.85
2023-03-02T11:25:18.549Z,14.22
2023-03-02T11:27:48.869Z,14.65
2023-03-02T11:30:18.905Z,14.61
2023-03-02T11:32:56.380Z,14.49
2023-03-02T11:35:28.186Z,14.92
2023-03-02T11:37:58.498Z,15.50
2023-03-02T11:40:27.865Z,15.66
2023-03-02T11:42:57.263Z,15.59
2023-03-02T11:45:27.617Z,15.85
2023-03-02T11:48:03.311Z,16.38
2023-03-02T11:50:37.672Z,16.89
2023-03-02T11:53:12.647Z,17.05
2023-03-02T11:55:44.452Z,17.17
2023-03-02T11:58:16.823Z,17.13
2023-03-02T12:00:45.710Z,17.03
2023-03-02T12:03:18.087Z,17.27
2023-03-02T12:05:48.815Z,17.94
2023-03-02T12:08:19.247Z,18.55
2023-03-02T12:11:02.127Z,18.86
2023-03-02T12:13:35.254Z,18.61
2023-03-02T12:16:04.986Z,17.99
2023-03-02T12:18:50.236Z,17.56
2023-03-02T12:21:19.744Z,17.01
2023-03-02T12:23:51.403Z,16.40
2023-03-02T12:26:20.699Z,16.05
2023-03-02T12:28:57.752Z,15.87
2023-03-02T12:31:26.651Z,15.44
2023-03-02T12:33:56.384Z,14.69
2023-03-02T12:36:33.165Z,13.83
2023-03-02T12:39:05.123Z,13.12
2023-03-02T12:41:45.070Z,12.54
2023-03-02T12:44:13.921Z,11.92
2023-03-02T12:46:45.513Z,11.51
2023-03-02T12:49:20.761Z,11.59
2023-03-02T12:51:49.671Z,11.85
2023-03-02T12:54:22.521Z,11.75
2023-03-02T12:57:01.879Z,11.49
2023-03-02T12:59:30.542Z,11.77
2023-03-02T13:02:12.201Z,12.33
2023-03-02T13:04:41.743Z,12.89
2023-03-02T13:07:17.591Z,12.63
2023-03-02T13:09:56.503Z,12.21
2023-03-02T13:12:27.066Z,12.22
2023-03-02T13:14:56.704Z,12.71
2023-03-02T13:17:27.074Z,13.34
2023-03-02T13:20:01.186Z,13.85
2023-03-02T13:22:30.835Z,14.26
2023-03-02T13:25:05.738Z,14.37
2023-03-02T13:27:35.257Z,14.34
2023-03-02T13:30:24.080Z,14.52
2023-03-02T13:33:01.084Z,14.80
2023-03-02T13:35:33.442Z,14.95
2023-03-02T13:38:03.485Z,14.99
2023-03-02T13:40:37.878Z,15.15
2023-03-02T13:43:20.383Z,15.52
2023-03-02T13:45:53.992Z,15.92
2023-03-02T13:49:07.481Z,16.20
2023-03-02T13:51:41.536Z,16.18
2023-03-02T13:54:15.441Z,15.97
2023-03-02T13:56:46.893Z,15.38
2023-03-02T13:59:18.965Z,14.55
2023-03-02T14:01:48.043Z,13.69
2023-03-02T14:04:18.258Z,13.16
2023-03-02T14:06:47.979Z,12.91
2023-03-02T14:09:17.181Z,12.58
2023-03-02T14:11:54.183Z,12.15
2023-03-02T14:14:24.191Z,11.70
2023-03-02T14:16:52.863Z,11.26
2023-03-02T14:19:23.488Z,10.86
2023-03-02T14:21:52.377Z,10.53
2023-03-02T14:24:21.372Z,10.27
2023-03-02T14:26:50.571Z,10.03
2023-03-02T14:29:21.819Z,9.93
2023-03-02T14:31:51.264Z,9.81
2023-03-02T14:34:20.048Z,9.63
2023-03-02T14:36:49.758Z,9.42
2023-03-02T14:39:21.375Z,9.22
2023-03-02T14:41:54.160Z,8.97
2023-03-02T14:44:26.009Z,8.70
2023-03-02T14:46:54.730Z,8.44
2023-03-02T14:49:23.702Z,8.28
2023-03-02T14:52:02.590Z,8.12
2023-03-02T14:54:34.892Z,8.01
2023-03-02T14:57:09.515Z,7.96
2023-03-02T14:59:38.404Z,7.85
2023-03-02T15:02:22.672Z,7.74
2023-03-02T15:05:12.637Z,7.55
2023-03-02T15:07:44.498Z,7.41
2023-03-02T15:10:16.801Z,7.30
2023-03-02T15:12:45.865Z,7.22
2023-03-02T15:15:17.171Z,7.18
2023-03-02T15:17:46.207Z,7.13
2023-03-02T15:20:16.850Z,7.06
2023-03-02T15:22:47.369Z,7.00
2023-03-02T15:25:17.605Z,6.91
2023-03-02T15:27:47.297Z,6.82
2023-03-02T15:30:18.019Z,6.70
2023-03-02T15:32:48.391Z,6.62
2023-03-02T15:35:17.545Z,6.52
2023-03-02T15:37:49.320Z,6.45
2023-03-02T15:40:18.400Z,6.39
2023-03-02T15:42:46.979Z,6.31
2023-03-02T15:45:16.894Z,6.28
2023-03-02T15:47:45.481Z,6.24
2023-03-02T15:50:13.980Z,6.23
2023-03-02T15:52:44.078Z,6.17
2023-03-02T15:55:15.730Z,6.12
2023-03-02T15:57:45.136Z,6.09
2023-03-02T16:00:14.536Z,6.03
2023-03-02T16:02:43.287Z,5.98
2023-03-02T16:05:17.412Z,5.90
2023-03-02T16:07:48.683Z,5.82
2023-03-02T16:10:18.725Z,5.75
2023-03-02T16:12:47.286Z,5.69
2023-03-02T16:15:15.881Z,5.64
2023-03-02T16:17:48.651Z,5.63
2023-03-02T16:20:17.473Z,5.63
2023-03-02T16:22:45.983Z,5.63
2023-03-02T16:25:14.704Z,5.62
2023-03-02T16:27:47.594Z,5.58
2023-03-02T16:30:20.290Z,5.54
2023-03-02T16:32:51.029Z,5.48
2023-03-02T16:35:19.597Z,5.45
2023-03-02T16:37:48.107Z,5.44
2023-03-02T16:40:17.375Z,5.39
2023-03-02T16:42:46.784Z,5.31
2023-03-02T16:45:15.762Z,5.26
2023-03-02T16:47:45.078Z,5.21
2023-03-02T16:50:13.957Z,5.14
2023-03-02T16:52:42.854Z,5.06
2023-03-02T16:55:13.782Z,5.01
2023-03-02T16:57:43.493Z,4.88
2023-03-02T17:00:13.029Z,4.70
2023-03-02T17:02:43.634Z,4.54
2023-03-02T17:05:12.315Z,4.39
2023-03-02T17:07:41.406Z,4.30
2023-03-02T17:10:12.554Z,4.31
2023-03-02T17:12:42.368Z,4.33
2023-03-02T17:15:13.538Z,4.34
2023-03-02T17:17:43.008Z,4.38
2023-03-02T17:20:13.016Z,4.43
2023-03-02T17:22:41.668Z,4.45
2023-03-02T17:25:12.140Z,4.42
2023-03-02T17:27:41.946Z,4.36
2023-03-02T17:30:13.496Z,4.30
2023-03-02T17:32:42.387Z,4.22
2023-03-02T17:35:12.511Z,4.12
2023-03-02T17:37:42.129Z,4.10
2023-03-02T17:40:14.395Z,4.12
2023-03-02T17:42:43.586Z,4.14
2023-03-02T17:45:18.361Z,4.15
2023-03-02T17:47:48.121Z,4.15
2023-03-02T17:50:16.725Z,4.17
2023-03-02T17:52:46.617Z,4.13
2023-03-02T17:55:16.128Z,4.03
2023-03-02T17:57:45.122Z,3.95
2023-03-02T18:00:15.340Z,3.85
2023-03-02T18:02:43.915Z,3.79
2023-03-02T18:05:13.417Z,3.75
2023-03-02T18:07:42.619Z,3.78
2023-03-02T18:10:13.865Z,3.84
2023-03-02T18:12:42.978Z,3.84
2023-03-02T18:15:12.192Z,3.76
2023-03-02T18:17:40.849Z,3.68
2023-03-02T18:20:10.448Z,3.58
2023-03-02T18:22:42.041Z,3.52
2023-03-02T18:25:10.799Z,3.48
2023-03-02T18:27:40.232Z,3.46
2023-03-02T18:30:09.627Z,3.48
2023-03-02T18:32:38.691Z,3.48
2023-03-02T18:35:07.784Z,3.43
2023-03-02T18:37:37.932Z,3.36
2023-03-02T18:40:07.303Z,3.33
2023-03-02T18:42:36.819Z,3.32
2023-03-02T18:45:06.593Z,3.33
2023-03-02T18:47:37.046Z,3.40
2023-03-02T18:50:07.060Z,3.44
2023-03-02T18:52:36.769Z,3.47
2023-03-02T18:55:05.867Z,3.42
2023-03-02T18:57:40.265Z,3.39
2023-03-02T19:00:10.543Z,3.42
2023-03-02T19:02:39.499Z,3.45
2023-03-02T19:05:08.715Z,3.42
2023-03-02T19:07:37.801Z,3.31
2023-03-02T19:10:08.018Z,3.21
2023-03-02T19:12:41.514Z,3.10
2023-03-02T19:15:11.027Z,3.01
2023-03-02T19:17:40.628Z,2.95
2023-03-02T19:20:18.945Z,2.94
2023-03-02T19:22:48.240Z,2.96
2023-03-02T19:25:17.092Z,2.98
2023-03-02T19:27:47.260Z,3.00
2023-03-02T19:30:20.958Z,2.99
2023-03-02T19:32:50.086Z,2.94
2023-03-02T19:35:19.235Z,2.86
2023-03-02T19:37:48.176Z,2.80
2023-03-02T19:40:22.551Z,2.75
2023-03-02T19:42:51.756Z,2.71
2023-03-02T19:45:22.238Z,2.66
2023-03-02T19:47:51.377Z,2.61
2023-03-02T19:50:40.025Z,2.57
2023-03-02T19:53:10.448Z,2.61
2023-03-02T19:55:43.027Z,2.67
2023-03-02T19:58:17.959Z,2.74
2023-03-02T20:00:47.424Z,2.80
2023-03-02T20:03:17.386Z,2.84
2023-03-02T20:05:47.107Z,2.85
2023-03-02T20:08:17.213Z,2.80
2023-03-02T20:10:51.424Z,2.74
2023-03-02T20:13:24.914Z,2.68
2023-03-02T20:15:55.958Z,2.63
2023-03-02T20:18:24.953Z,2.59
2023-03-02T20:20:53.723Z,2.55
2023-03-02T20:23:23.653Z,2.51
2023-03-02T20:25:53.980Z,2.48
2023-03-02T20:28:23.594Z,2.50
2023-03-02T20:30:53.880Z,2.50
2023-03-02T20:33:24.561Z,2.46
2023-03-02T20:35:55.014Z,2.42
2023-03-02T20:38:29.513Z,2.37
2023-03-02T20:41:00.494Z,2.34
2023-03-02T20:43:29.423Z,2.30
2023-03-02T20:45:59.066Z,2.26
2023-03-02T20:48:28.235Z,2.19
2023-03-02T20:50:58.670Z,2.12
2023-03-02T20:53:27.848Z,2.08
2023-03-02T20:55:56.946Z,2.05
2023-03-02T20:58:25.545Z,2.06
2023-03-02T21:00:55.990Z,2.09
2023-03-02T21:03:25.248Z,2.15
2023-03-02T21:05:54.344Z,2.18
2023-03-02T21:08:23.956Z,2.18
2023-03-02T21:10:54.404Z,2.19
2023-03-02T21:13:24.494Z,2.16
2023-03-02T21:15:53.497Z,2.14
2023-03-02T21:18:25.039Z,2.13
2023-03-02T21:20:54.042Z,2.12
2023-03-02T21:23:22.843Z,2.14
2023-03-02T21:25:51.614Z,2.13
2023-03-02T21:28:20.603Z,2.14
2023-03-02T21:30:50.955Z,2.13
2023-03-02T21:33:20.401Z,2.09
2023-03-02T21:35:49.120Z,2.06
2023-03-02T21:38:18.932Z,2.07
2023-03-02T21:40:47.719Z,2.08
2023-03-02T21:43:16.611Z,2.07
2023-03-02T21:45:45.494Z,2.05
2023-03-02T21:48:14.715Z,2.02
2023-03-02T21:50:43.791Z,2.02
2023-03-02T21:53:12.587Z,1.99
2023-03-02T21:55:42.519Z,1.98
2023-03-02T21:58:10.996Z,1.94
2023-03-02T22:00:41.301Z,1.93
2023-03-02T22:03:10.089Z,1.93
2023-03-02T22:05:39.501Z,1.91
2023-03-02T22:08:08.753Z,1.90
2023-03-02T22:10:49.659Z,1.88
2023-03-02T22:13:26.346Z,1.85
2023-03-02T22:16:03.422Z,1.83
2023-03-02T22:18:35.190Z,1.82
2023-03-02T22:21:07.746Z,1.81
2023-03-02T22:23:36.740Z,1.80
2023-03-02T22:26:09.235Z,1.78
2023-03-02T22:28:41.290Z,1.78
2023-03-02T22:31:13.284Z,1.77
2023-03-02T22:33:44.521Z,1.77
2023-03-02T22:36:18.713Z,1.76
2023-03-02T22:38:47.820Z,1.74
2023-03-02T22:41:18.948Z,1.69
2023-03-02T22:43:49.779Z,1.65
2023-03-02T22:46:22.108Z,1.60
2023-03-02T22:48:51.069Z,1.62
2023-03-02T22:51:20.168Z,1.60
2023-03-02T22:53:50.668Z,1.61
2023-03-02T22:56:21.080Z,1.62
2023-03-02T22:58:50.523Z,1.62
2023-03-02T23:01:26.186Z,1.64
2023-03-02T23:03:55.547Z,1.66
2023-03-02T23:06:33.238Z,1.69
2023-03-02T23:09:02.861Z,1.71
2023-03-02T23:11:32.360Z,1.77
2023-03-02T23:14:01.452Z,1.76
2023-03-02T23:16:33.311Z,1.73
2023-03-02T23:19:02.010Z,1.70
2023-03-02T23:21:35.800Z,1.67
2023-03-02T23:24:05.128Z,1.64
2023-03-02T23:26:34.502Z,1.60
2023-03-02T23:29:23.070Z,1.56
2023-03-02T23:31:55.243Z,1.52
2023-03-02T23:34:24.741Z,1.50
2023-03-02T23:36:55.058Z,1.51
2023-03-02T23:39:24.346Z,1.50
2023-03-02T23:41:53.406Z,1.48
2023-03-02T23:44:22.232Z,1.45
2023-03-02T23:46:52.255Z,1.41
2023-03-02T23:49:21.365Z,1.39
2023-03-02T23:51:50.434Z,1.36
2023-03-02T23:54:19.531Z,1.33
2023-03-02T23:56:49.340Z,1.32
2023-03-02T23:59:19.776Z,1.31
